createdAt,value
2019-01-28T00:01:05.497Z,99.90
2019-01-28T00:03:35.166Z,99.90
2019-01-28T00:06:06.603Z,99.90
2019-01-28T00:08:35.817Z,99.90
2019-01-28T00:11:03.650Z,99.90
2019-01-28T00:13:36.548Z,99.90
2019-01-28T00:16:03.566Z,99.90
2019-01-28T00:18:37.115Z,99.90
2019-01-28T00:21:05.944Z,99.90
2019-01-28T00:23:34.065Z,99.90
2019-01-28T00:26:01.724Z,99.90
2019-01-28T00:28:29.377Z,99.90
2019-01-28T00:30:56.948Z,99.90
2019-01-28T00:33:28.883Z,99.90
2019-01-28T00:35:56.850Z,99.90
2019-01-28T00:38:25.186Z,99.90
2019-01-28T00:40:54.395Z,99.90
2019-01-28T00:43:23.336Z,99.90
2019-01-28T00:45:52.430Z,99.90
2019-01-28T00:48:23.184Z,99.90
2019-01-28T00:50:50.734Z,99.90
2019-01-28T00:53:18.750Z,99.90
2019-01-28T00:55:49.879Z,99.90
2019-01-28T00:58:18.230Z,99.90
2019-01-28T01:00:46.905Z,99.90
2019-01-28T01:03:15.073Z,99.90
2019-01-28T01:05:43.304Z,99.90
2019-01-28T01:08:12.361Z,99.90
2019-01-28T01:10:39.186Z,99.90
2019-01-28T01:13:06.835Z,99.90
2019-01-28T01:15:34.266Z,99.90
2019-01-28T01:18:05.039Z,99.90
2019-01-28T01:20:34.237Z,99.90
2019-01-28T01:23:04.827Z,99.90
2019-01-28T01:25:32.106Z,99.90
2019-01-28T01:28:02.484Z,99.90
2019-01-28T01:30:29.914Z,99.90
2019-01-28T01:32:57.693Z,99.90
2019-01-28T01:35:25.680Z,99.90
2019-01-28T01:37:53.582Z,99.90
2019-01-28T01:40:21.627Z,99.90
2019-01-28T01:42:54.934Z,99.90
2019-01-28T01:45:23.996Z,99.90
2019-01-28T01:47:52.437Z,99.90
2019-01-28T01:50:20.087Z,99.90
2019-01-28T01:52:48.917Z,99.90
2019-01-28T01:55:21.603Z,99.90
2019-01-28T01:57:48.492Z,99.90
2019-01-28T02:00:15.891Z,99.90
2019-01-28T02:02:49.723Z,99.90
2019-01-28T02:05:19.714Z,99.90
2019-01-28T02:07:47.475Z,99.90
2019-01-28T02:10:28.093Z,99.90
2019-01-28T02:12:56.019Z,99.90
2019-01-28T02:15:23.642Z,99.90
2019-01-28T02:17:50.543Z,99.90
2019-01-28T02:20:20.271Z,99.90
2019-01-28T02:22:49.923Z,99.90
2019-01-28T02:25:19.634Z,99.90
2019-01-28T02:27:45.995Z,99.90
2019-01-28T02:30:12.825Z,99.90
2019-01-28T02:35:29.101Z,99.90
2019-01-28T02:40:31.275Z,99.90
2019-01-28T02:42:58.356Z,99.90
2019-01-28T02:45:25.303Z,99.90
2019-01-28T02:47:52.155Z,99.90
2019-01-28T02:50:18.767Z,99.90
2019-01-28T02:52:45.707Z,99.90
2019-01-28T02:55:12.448Z,99.90
2019-01-28T02:57:39.293Z,99.90
2019-01-28T03:00:06.253Z,99.90
2019-01-28T03:02:33.522Z,99.90
2019-01-28T03:05:00.516Z,99.90
2019-01-28T03:07:28.428Z,99.90
2019-01-28T03:09:55.353Z,99.90
2019-01-28T03:12:22.180Z,99.90
2019-01-28T03:14:48.891Z,99.90
2019-01-28T03:17:16.650Z,99.90
2019-01-28T03:19:44.036Z,99.90
2019-01-28T03:22:10.742Z,99.90
2019-01-28T03:24:37.908Z,99.90
2019-01-28T03:27:04.688Z,99.90
2019-01-28T03:29:31.668Z,99.90
2019-01-28T03:31:58.313Z,99.90
2019-01-28T03:34:26.516Z,99.90
2019-01-28T03:36:53.498Z,99.90
2019-01-28T03:39:20.131Z,99.90
2019-01-28T03:41:46.917Z,99.90
2019-01-28T03:44:14.198Z,99.90
2019-01-28T03:46:40.930Z,99.90
2019-01-28T03:49:07.634Z,99.90
2019-01-28T03:51:34.306Z,99.90
2019-01-28T03:54:01.335Z,99.90
2019-01-28T03:56:28.373Z,99.90
2019-01-28T03:58:56.064Z,99.90
2019-01-28T04:01:22.744Z,99.90
2019-01-28T04:03:49.449Z,99.90
2019-01-28T04:06:16.872Z,99.90
2019-01-28T04:08:43.479Z,99.90
2019-01-28T04:11:10.449Z,99.90
2019-01-28T04:13:37.573Z,99.90
2019-01-28T04:16:04.982Z,99.90
2019-01-28T04:18:31.934Z,99.90
2019-01-28T04:20:58.563Z,99.90
2019-01-28T04:26:10.782Z,99.90
2019-01-28T04:28:37.654Z,99.90
2019-01-28T04:31:04.778Z,99.90
2019-01-28T04:33:31.854Z,99.90
2019-01-28T04:36:00.967Z,99.90
2019-01-28T04:38:32.149Z,99.90
2019-01-28T04:41:00.197Z,99.90
2019-01-28T04:43:30.548Z,99.90
2019-01-28T04:46:00.170Z,99.90
2019-01-28T04:48:27.107Z,99.90
2019-01-28T04:50:56.045Z,99.90
2019-01-28T04:53:23.965Z,99.90
2019-01-28T04:56:05.470Z,99.90
2019-01-28T04:58:32.963Z,99.90
2019-01-28T05:00:59.514Z,99.90
2019-01-28T05:03:26.245Z,99.90
2019-01-28T05:05:53.137Z,99.90
2019-01-28T05:08:19.991Z,99.90
2019-01-28T05:10:48.402Z,99.90
2019-01-28T05:13:15.024Z,99.90
2019-01-28T05:15:41.940Z,99.90
2019-01-28T05:18:08.581Z,99.90
2019-01-28T05:20:35.230Z,99.90
2019-01-28T05:23:02.121Z,99.90
2019-01-28T05:25:29.105Z,99.90
2019-01-28T05:27:56.309Z,99.90
2019-01-28T05:30:23.114Z,99.90
2019-01-28T05:32:50.073Z,99.90
2019-01-28T05:35:17.990Z,99.90
2019-01-28T05:37:44.823Z,99.90
2019-01-28T05:40:11.665Z,99.90
2019-01-28T05:42:38.374Z,99.90
2019-01-28T05:45:05.054Z,99.90
2019-01-28T05:47:31.663Z,99.90
2019-01-28T05:49:58.441Z,99.90
2019-01-28T05:52:25.106Z,99.90
2019-01-28T05:54:51.846Z,99.90
2019-01-28T05:57:18.934Z,99.90
2019-01-28T05:59:45.582Z,99.90
2019-01-28T06:02:12.609Z,99.90
2019-01-28T06:04:39.233Z,99.90
2019-01-28T06:07:05.868Z,99.90
2019-01-28T06:09:32.831Z,99.90
2019-01-28T06:11:59.777Z,99.90
2019-01-28T06:14:26.611Z,99.90
2019-01-28T06:16:53.386Z,99.90
2019-01-28T06:19:20.127Z,99.90
2019-01-28T06:21:47.062Z,99.90
2019-01-28T06:24:14.026Z,99.90
2019-01-28T06:26:40.971Z,99.90
2019-01-28T06:29:07.704Z,99.90
2019-01-28T06:31:34.700Z,99.90
2019-01-28T06:34:01.561Z,99.90
2019-01-28T06:36:28.395Z,99.90
2019-01-28T06:38:57.331Z,99.90
2019-01-28T06:41:24.825Z,99.90
2019-01-28T06:43:51.783Z,99.90
2019-01-28T06:46:19.810Z,99.90
2019-01-28T06:48:53.757Z,99.90
2019-01-28T06:51:20.423Z,99.90
2019-01-28T06:53:52.491Z,99.90
2019-01-28T06:56:22.055Z,99.90
2019-01-28T06:58:49.894Z,99.90
2019-01-28T07:01:16.588Z,99.90
2019-01-28T07:03:47.274Z,99.90
2019-01-28T07:06:14.651Z,99.90
2019-01-28T07:08:43.828Z,99.90
2019-01-28T07:11:12.203Z,99.90
2019-01-28T07:13:44.994Z,99.90
2019-01-28T07:16:14.293Z,99.90
2019-01-28T07:18:45.292Z,99.90
2019-01-28T07:21:13.146Z,99.90
2019-01-28T07:23:43.690Z,99.90
2019-01-28T07:26:14.576Z,99.90
2019-01-28T07:28:42.932Z,99.90
2019-01-28T07:31:13.260Z,99.90
2019-01-28T07:33:44.359Z,99.90
2019-01-28T07:36:13.940Z,99.90
2019-01-28T07:38:40.780Z,99.90
2019-01-28T07:41:08.529Z,99.90
2019-01-28T07:43:40.621Z,99.90
2019-01-28T07:46:07.978Z,99.90
2019-01-28T07:48:36.856Z,99.90
2019-01-28T07:51:04.604Z,99.90
2019-01-28T07:53:35.427Z,99.90
2019-01-28T07:56:06.342Z,99.90
2019-01-28T07:58:37.073Z,99.90
2019-01-28T08:01:03.851Z,99.90
2019-01-28T08:03:30.739Z,99.90
2019-01-28T08:05:58.080Z,99.90
2019-01-28T08:08:28.236Z,99.90
2019-01-28T08:10:56.248Z,99.90
2019-01-28T08:13:26.078Z,99.90
2019-01-28T08:15:52.761Z,99.90
2019-01-28T08:18:20.821Z,99.90
2019-01-28T08:20:49.892Z,99.90
2019-01-28T08:23:17.599Z,99.90
2019-01-28T08:25:48.976Z,99.90
2019-01-28T08:31:06.016Z,99.90
2019-01-28T08:33:37.745Z,99.90
2019-01-28T08:38:51.486Z,99.90
2019-01-28T08:41:18.194Z,99.90
2019-01-28T08:43:47.787Z,99.90
2019-01-28T08:46:16.669Z,99.90
2019-01-28T08:51:32.149Z,99.90
2019-01-28T08:54:00.953Z,99.90
2019-01-28T08:56:28.631Z,99.90
2019-01-28T08:58:58.334Z,99.90
2019-01-28T09:01:25.722Z,99.90
2019-01-28T09:03:52.539Z,99.90
2019-01-28T09:06:19.247Z,99.90
2019-01-28T09:08:46.285Z,99.90
2019-01-28T09:11:13.524Z,99.90
2019-01-28T09:13:40.268Z,99.90
2019-01-28T09:16:07.370Z,99.90
2019-01-28T09:18:34.593Z,99.90
2019-01-28T09:21:01.610Z,99.90
2019-01-28T09:23:28.581Z,99.90
2019-01-28T09:25:55.409Z,99.90
2019-01-28T09:28:22.288Z,99.90
2019-01-28T09:30:49.106Z,99.70
2019-01-28T09:33:15.939Z,99.60
2019-01-28T09:35:42.595Z,98.00
2019-01-28T09:38:09.528Z,93.10
2019-01-28T09:40:36.516Z,95.30
2019-01-28T09:43:03.778Z,92.10
2019-01-28T09:45:30.618Z,89.80
2019-01-28T09:47:57.532Z,86.50
2019-01-28T09:50:27.264Z,84.00
2019-01-28T09:53:11.820Z,83.20
2019-01-28T09:55:43.015Z,81.60
2019-01-28T09:58:12.785Z,78.70
2019-01-28T10:00:42.359Z,75.50
2019-01-28T10:03:15.358Z,76.10
2019-01-28T10:05:44.384Z,78.30
2019-01-28T10:08:11.031Z,75.30
2019-01-28T10:10:40.038Z,74.10
2019-01-28T10:13:06.979Z,73.20
2019-01-28T10:15:35.865Z,72.90
2019-01-28T10:18:05.754Z,72.70
2019-01-28T10:20:33.438Z,72.70
2019-01-28T10:23:00.176Z,70.60
2019-01-28T10:25:30.246Z,69.30
2019-01-28T10:27:57.067Z,69.30
2019-01-28T10:30:24.043Z,68.40
2019-01-28T10:32:52.102Z,70.10
2019-01-28T10:35:18.881Z,69.90
2019-01-28T10:37:46.356Z,69.00
2019-01-28T10:40:16.686Z,65.30
2019-01-28T10:42:47.737Z,66.60
2019-01-28T10:45:17.160Z,68.30
2019-01-28T10:47:47.802Z,70.10
2019-01-28T10:50:14.525Z,67.20
2019-01-28T10:52:41.719Z,64.00
2019-01-28T10:55:09.089Z,65.30
2019-01-28T10:57:38.497Z,65.50
2019-01-28T11:00:05.240Z,65.80
2019-01-28T11:02:32.281Z,63.90
2019-01-28T11:05:02.601Z,63.80
2019-01-28T11:07:29.244Z,64.80
2019-01-28T11:09:57.600Z,60.80
2019-01-28T11:12:26.864Z,64.30
2019-01-28T11:14:57.749Z,62.70
2019-01-28T11:17:27.947Z,65.10
2019-01-28T11:19:59.622Z,66.30
2019-01-28T11:22:27.790Z,63.00
2019-01-28T11:24:54.581Z,62.30
2019-01-28T11:27:24.095Z,62.10
2019-01-28T11:29:55.871Z,58.50
2019-01-28T11:32:24.986Z,58.60
2019-01-28T11:34:56.188Z,59.20
2019-01-28T11:37:27.950Z,58.20
2019-01-28T11:39:56.556Z,57.60
2019-01-28T11:42:28.091Z,56.40
2019-01-28T11:44:53.653Z,57.50
2019-01-28T11:47:26.087Z,53.40
2019-01-28T11:49:57.019Z,53.50
2019-01-28T11:52:23.791Z,53.50
2019-01-28T11:54:50.665Z,53.70
2019-01-28T11:57:33.461Z,53.30
2019-01-28T11:59:57.497Z,53.50
2019-01-28T12:02:34.018Z,53.20
2019-01-28T12:04:59.041Z,52.20
2019-01-28T12:07:29.472Z,53.90
2019-01-28T12:09:58.175Z,52.50
2019-01-28T12:12:27.746Z,53.50
2019-01-28T12:14:55.364Z,53.40
2019-01-28T12:17:23.847Z,52.80
2019-01-28T12:19:52.572Z,50.80
2019-01-28T12:22:30.597Z,52.70
2019-01-28T12:25:00.995Z,51.70
2019-01-28T12:27:29.047Z,52.90
2019-01-28T12:29:57.219Z,50.80
2019-01-28T12:35:12.488Z,52.00
2019-01-28T12:37:40.174Z,51.60
2019-01-28T12:40:14.801Z,52.00
2019-01-28T12:42:41.677Z,51.30
2019-01-28T12:45:11.001Z,52.10
2019-01-28T12:47:37.775Z,51.10
2019-01-28T12:50:06.840Z,52.30
2019-01-28T12:52:35.709Z,52.20
2019-01-28T12:55:04.431Z,51.70
2019-01-28T12:57:30.795Z,50.10
2019-01-28T13:00:00.931Z,51.20
2019-01-28T13:02:30.119Z,52.20
2019-01-28T13:04:56.750Z,52.00
2019-01-28T13:07:25.965Z,51.60
2019-01-28T13:09:52.894Z,52.60
2019-01-28T13:12:21.784Z,52.50
2019-01-28T13:14:49.702Z,51.50
2019-01-28T13:17:18.674Z,52.20
2019-01-28T13:19:49.009Z,52.60
2019-01-28T13:22:20.180Z,51.40
2019-01-28T13:24:47.879Z,52.10
2019-01-28T13:27:14.815Z,52.20
2019-01-28T13:29:41.979Z,50.50
2019-01-28T13:32:11.889Z,52.20
2019-01-28T13:34:39.419Z,50.80
2019-01-28T13:37:06.066Z,51.60
2019-01-28T13:39:38.465Z,51.40
2019-01-28T13:42:07.018Z,51.60
2019-01-28T13:44:34.303Z,50.40
2019-01-28T13:47:06.503Z,50.90
2019-01-28T13:49:38.189Z,51.20
2019-01-28T13:52:06.774Z,50.60
2019-01-28T13:54:33.178Z,50.40
2019-01-28T13:57:03.929Z,51.50
2019-01-28T13:59:31.212Z,50.00
2019-01-28T14:04:43.388Z,49.70
2019-01-28T14:07:10.053Z,51.50
2019-01-28T14:09:36.658Z,50.40
2019-01-28T14:12:03.497Z,49.90
2019-01-28T14:14:30.437Z,48.90
2019-01-28T14:16:57.074Z,49.30
2019-01-28T14:19:23.753Z,49.40
2019-01-28T14:21:50.517Z,49.30
2019-01-28T14:24:17.146Z,49.30
2019-01-28T14:26:43.864Z,50.60
2019-01-28T14:29:10.747Z,49.70
2019-01-28T14:31:37.643Z,49.40
2019-01-28T14:34:04.246Z,50.20
2019-01-28T14:36:30.887Z,50.50
2019-01-28T14:39:01.388Z,49.50
2019-01-28T14:41:31.861Z,50.40
2019-01-28T14:44:00.711Z,50.70
2019-01-28T14:46:29.378Z,51.90
2019-01-28T14:48:57.693Z,52.00
2019-01-28T14:51:24.437Z,52.00
2019-01-28T14:53:51.380Z,50.70
2019-01-28T14:56:20.822Z,51.80
2019-01-28T14:58:47.421Z,51.60
2019-01-28T15:01:14.135Z,49.70
2019-01-28T15:03:40.945Z,51.90
2019-01-28T15:06:07.677Z,50.80
2019-01-28T15:08:34.802Z,51.30
2019-01-28T15:11:05.000Z,51.10
2019-01-28T15:13:35.253Z,52.50
2019-01-28T15:16:08.828Z,51.70
2019-01-28T15:18:31.928Z,52.00
2019-01-28T15:21:00.194Z,51.90
2019-01-28T15:23:30.317Z,51.90
2019-01-28T15:25:58.719Z,51.40
2019-01-28T15:28:25.510Z,53.00
2019-01-28T15:30:53.238Z,52.40
2019-01-28T15:33:22.989Z,51.60
2019-01-28T15:35:51.246Z,52.40
2019-01-28T15:38:19.461Z,53.10
2019-01-28T15:40:47.193Z,51.20
2019-01-28T15:43:15.441Z,52.50
2019-01-28T15:45:44.191Z,56.10
2019-01-28T15:48:12.271Z,63.10
2019-01-28T15:50:39.294Z,71.50
2019-01-28T15:53:06.276Z,76.10
2019-01-28T15:55:32.922Z,79.70
2019-01-28T15:57:59.778Z,83.70
2019-01-28T16:00:43.845Z,85.50
2019-01-28T16:03:11.863Z,90.30
2019-01-28T16:05:42.174Z,92.60
2019-01-28T16:08:08.909Z,93.10
2019-01-28T16:10:37.683Z,95.60
2019-01-28T16:15:51.258Z,99.90
2019-01-28T16:18:17.898Z,99.90
2019-01-28T16:20:48.904Z,99.80
2019-01-28T16:23:22.253Z,99.90
2019-01-28T16:25:49.811Z,99.90
2019-01-28T16:28:20.338Z,99.90
2019-01-28T16:30:51.256Z,99.90
2019-01-28T16:33:20.226Z,99.90
2019-01-28T16:35:50.485Z,99.90
2019-01-28T16:38:17.622Z,99.90
2019-01-28T16:40:44.268Z,99.90
2019-01-28T16:43:11.185Z,99.90
2019-01-28T16:45:38.274Z,99.90
2019-01-28T16:48:07.629Z,99.90
2019-01-28T16:50:35.746Z,99.90
2019-01-28T16:53:03.777Z,99.90
2019-01-28T16:55:33.021Z,99.90
2019-01-28T16:58:02.087Z,99.90
2019-01-28T17:00:31.716Z,99.90
2019-01-28T17:02:59.544Z,99.90
2019-01-28T17:05:30.015Z,99.90
2019-01-28T17:07:58.953Z,98.30
2019-01-28T17:10:28.148Z,98.10
2019-01-28T17:12:55.009Z,99.80
2019-01-28T17:15:23.968Z,99.90
2019-01-28T17:17:51.676Z,99.90
2019-01-28T17:20:18.232Z,99.90
2019-01-28T17:22:44.885Z,99.90
2019-01-28T17:25:11.786Z,99.90
2019-01-28T17:27:38.696Z,99.90
2019-01-28T17:30:05.336Z,99.90
2019-01-28T17:32:34.384Z,99.90
2019-01-28T17:35:01.220Z,99.90
2019-01-28T17:37:27.854Z,99.90
2019-01-28T17:39:54.754Z,99.90
2019-01-28T17:42:24.668Z,99.90
2019-01-28T17:44:51.684Z,99.90
2019-01-28T17:47:20.705Z,99.90
2019-01-28T17:50:00.833Z,99.90
2019-01-28T17:52:19.456Z,99.90
2019-01-28T17:54:48.195Z,99.90
2019-01-28T17:57:15.925Z,99.90
2019-01-28T17:59:42.517Z,99.90
2019-01-28T18:02:09.697Z,99.90
2019-01-28T18:04:38.366Z,99.90
2019-01-28T18:07:06.829Z,99.90
2019-01-28T18:09:33.638Z,99.90
2019-01-28T18:14:47.906Z,99.90
2019-01-28T18:17:15.381Z,99.90
2019-01-28T18:19:42.283Z,99.90
2019-01-28T18:22:11.349Z,99.90
2019-01-28T18:24:38.499Z,99.90
2019-01-28T18:27:06.987Z,99.90
2019-01-28T18:29:33.589Z,99.90
2019-01-28T18:32:01.342Z,99.90
2019-01-28T18:34:32.440Z,99.90
2019-01-28T18:36:59.084Z,99.90
2019-01-28T18:39:26.487Z,99.90
2019-01-28T18:41:53.159Z,99.90
2019-01-28T18:44:19.784Z,99.90
2019-01-28T18:46:46.724Z,99.90
2019-01-28T18:49:13.621Z,99.90
2019-01-28T18:51:40.222Z,99.90
2019-01-28T18:54:07.158Z,99.90
2019-01-28T18:56:33.817Z,99.90
2019-01-28T18:59:00.833Z,99.90
2019-01-28T19:01:27.779Z,99.90
2019-01-28T19:03:54.416Z,99.90
2019-01-28T19:06:21.057Z,99.90
2019-01-28T19:08:47.953Z,99.90
2019-01-28T19:11:14.816Z,99.90
2019-01-28T19:13:41.442Z,99.90
2019-01-28T19:16:08.270Z,99.90
2019-01-28T19:18:36.432Z,99.90
2019-01-28T19:21:07.781Z,99.90
2019-01-28T19:23:31.512Z,99.90
2019-01-28T19:25:58.158Z,99.90
2019-01-28T19:28:24.801Z,99.90
2019-01-28T19:30:51.503Z,99.90
2019-01-28T19:33:18.240Z,99.90
2019-01-28T19:35:44.850Z,99.90
2019-01-28T19:38:11.805Z,99.90
2019-01-28T19:40:38.376Z,99.90
2019-01-28T19:43:06.747Z,99.90
2019-01-28T19:45:33.460Z,99.90
2019-01-28T19:48:00.074Z,99.90
2019-01-28T19:50:26.701Z,99.90
2019-01-28T19:52:53.702Z,99.90
2019-01-28T19:55:20.623Z,99.90
2019-01-28T19:57:47.801Z,99.90
2019-01-28T20:00:14.737Z,99.90
2019-01-28T20:02:41.717Z,99.90
2019-01-28T20:05:08.627Z,99.90
2019-01-28T20:07:35.487Z,99.90
2019-01-28T20:10:02.111Z,99.90
2019-01-28T20:12:28.930Z,99.90
2019-01-28T20:14:55.922Z,99.90
2019-01-28T20:17:22.872Z,99.90
2019-01-28T20:19:49.828Z,99.90
2019-01-28T20:22:16.501Z,99.90
2019-01-28T20:24:43.102Z,99.90
2019-01-28T20:27:12.074Z,99.90
2019-01-28T20:29:38.455Z,99.90
2019-01-28T20:32:05.703Z,99.90
2019-01-28T20:34:32.298Z,99.90
2019-01-28T20:36:59.310Z,99.90
2019-01-28T20:39:26.346Z,99.90
2019-01-28T20:44:39.961Z,99.90
2019-01-28T20:47:07.763Z,99.90
2019-01-28T20:49:35.539Z,99.90
2019-01-28T20:52:02.486Z,99.90
2019-01-28T20:54:29.425Z,99.90
2019-01-28T20:56:57.655Z,99.90
2019-01-28T20:59:24.579Z,99.90
2019-01-28T21:01:51.478Z,99.90
2019-01-28T21:04:19.725Z,99.90
2019-01-28T21:06:46.645Z,99.90
2019-01-28T21:09:13.753Z,99.90
2019-01-28T21:11:40.465Z,99.90
2019-01-28T21:14:08.725Z,99.90
2019-01-28T21:16:35.371Z,99.90
2019-01-28T21:19:02.095Z,99.90
2019-01-28T21:21:29.756Z,99.90
2019-01-28T21:23:56.386Z,99.90
2019-01-28T21:26:24.007Z,99.90
2019-01-28T21:28:50.831Z,99.90
2019-01-28T21:31:18.503Z,99.90
2019-01-28T21:33:45.234Z,99.90
2019-01-28T21:36:12.892Z,99.90
2019-01-28T21:38:39.583Z,99.90
2019-01-28T21:41:06.431Z,99.90
2019-01-28T21:43:33.080Z,99.90
2019-01-28T21:46:00.021Z,99.90
2019-01-28T21:48:26.771Z,99.90
2019-01-28T21:50:53.377Z,99.90
2019-01-28T21:53:20.013Z,99.90
2019-01-28T21:55:46.812Z,99.90
2019-01-28T21:58:13.412Z,99.90
2019-01-28T22:00:42.339Z,99.90
2019-01-28T22:03:09.016Z,99.90
2019-01-28T22:05:41.445Z,99.90
2019-01-28T22:08:08.140Z,99.90
2019-01-28T22:10:34.720Z,99.90
2019-01-28T22:15:46.953Z,99.90
2019-01-28T22:18:15.100Z,99.90
2019-01-28T22:20:41.857Z,99.90
2019-01-28T22:23:08.986Z,99.90
2019-01-28T22:25:35.890Z,99.90
2019-01-28T22:28:06.262Z,99.90
2019-01-28T22:30:33.499Z,99.90
2019-01-28T22:33:00.211Z,99.90
2019-01-28T22:35:27.541Z,99.90
2019-01-28T22:37:54.467Z,99.90
2019-01-28T22:40:22.105Z,99.90
2019-01-28T22:42:48.838Z,99.90
2019-01-28T22:45:16.744Z,99.90
2019-01-28T22:47:43.449Z,99.90
2019-01-28T22:50:10.130Z,99.90
2019-01-28T22:52:37.236Z,99.90
2019-01-28T22:55:04.728Z,99.90
2019-01-28T22:57:31.432Z,99.90
2019-01-28T22:59:58.509Z,99.90
2019-01-28T23:02:25.126Z,99.90
2019-01-28T23:04:52.112Z,99.90
2019-01-28T23:07:18.842Z,99.90
2019-01-28T23:09:45.570Z,99.90
2019-01-28T23:12:12.492Z,99.90
2019-01-28T23:14:39.202Z,99.90
2019-01-28T23:17:06.698Z,99.90
2019-01-28T23:19:33.730Z,99.90
2019-01-28T23:22:00.464Z,99.90
2019-01-28T23:24:27.334Z,99.90
2019-01-28T23:26:54.912Z,99.90
2019-01-28T23:29:25.818Z,99.90
2019-01-28T23:31:52.968Z,99.90
2019-01-28T23:34:19.908Z,99.90
2019-01-28T23:36:46.600Z,99.90
2019-01-28T23:39:13.296Z,99.90
2019-01-28T23:44:13.694Z,99.90
2019-01-28T23:46:41.546Z,99.90
2019-01-28T23:49:08.311Z,99.90
2019-01-28T23:51:36.562Z,99.90
2019-01-28T23:54:03.195Z,99.90
2019-01-28T23:56:30.066Z,99.90
2019-01-28T23:58:56.982Z,99.90
